No particular awareness of the weather is required.    There are no Weather-warnings


Meteo18 Weather Cam more information Meteo18 Weather Cam


Thunder radar more information blitzortung!


Rain radar more information rain snow radar


Visit our other weather sites:

Template documentation
and downloads

And another site



Weather Underground History page Text

Daily Summary for October 8, 2016 Units:  Metric    English   Both
« Previous Day
Next Day »
Daily Weekly Monthly Yearly Custom
  High: Low: Average:
Temperature: 15.7 °C 9.8 °C 12.2 °C
Dew Point: 9.0 °C 7.1 °C 8.1 °C
Humidity: 86 % 60 % 77 %
Wind Speed: 22.5 km/h 0.0 km/h 4.9 km/h
Wind Gust: 29.0 km/h - -
Wind:- - SSE
Pressure: 1022.9 hPa 1017.2 hPa -
Precipitation: 0.0 mm    
Historical Graphs
 
 
Tabular Data for October 8, 2016
Time Temperature Dew Point Pressure Wind Wind Speed Wind Gust Humidity Rainfall Rate (Hourly)
00:02 10.6 °C 7.3 °C 1017.2 hPa Calm   11.3 km/h 80 % 0.0 mm
00:07 10.5 °C 7.2 °C 1017.2 hPa Calm   9.7 km/h 80 % 0.0 mm
00:12 10.4 °C 7.3 °C 1017.2 hPa Calm   4.8 km/h 81 % 0.0 mm
00:17 10.3 °C 7.2 °C 1017.2 hPa Calm   4.8 km/h 81 % 0.0 mm
00:22 10.2 °C 7.3 °C 1017.5 hPa North 3.2 km/h 4.8 km/h 82 % 0.0 mm
00:27 10.3 °C 7.4 °C 1017.5 hPa Calm   4.8 km/h 82 % 0.0 mm
00:32 10.2 °C 7.3 °C 1017.5 hPa Calm   4.8 km/h 82 % 0.0 mm
00:37 10.3 °C 7.4 °C 1017.5 hPa Calm   6.4 km/h 82 % 0.0 mm
00:42 10.3 °C 7.4 °C 1017.5 hPa Calm   6.4 km/h 82 % 0.0 mm
00:47 10.3 °C 7.4 °C 1017.5 hPa North 1.6 km/h 4.8 km/h 82 % 0.0 mm
00:52 10.3 °C 7.4 °C 1017.5 hPa Calm   3.2 km/h 82 % 0.0 mm
00:57 10.4 °C 7.5 °C 1017.5 hPa Calm   3.2 km/h 82 % 0.0 mm
01:02 10.4 °C 7.5 °C 1017.5 hPa Calm   3.2 km/h 82 % 0.0 mm
01:12 10.4 °C 7.5 °C 1017.5 hPa Calm   1.6 km/h 82 % 0.0 mm
01:17 10.5 °C 7.6 °C 1017.5 hPa Calm   3.2 km/h 82 % 0.0 mm
01:22 10.6 °C 7.7 °C 1017.5 hPa NNE 1.6 km/h 3.2 km/h 82 % 0.0 mm
01:27 10.5 °C 7.6 °C 1017.5 hPa Calm   3.2 km/h 82 % 0.0 mm
01:32 10.5 °C 7.6 °C 1017.5 hPa North 1.6 km/h 3.2 km/h 82 % 0.0 mm
01:37 10.6 °C 7.8 °C 1017.8 hPa North 1.6 km/h 3.2 km/h 83 % 0.0 mm
01:42 10.6 °C 7.8 °C 1017.5 hPa Calm   3.2 km/h 83 % 0.0 mm
01:47 10.6 °C 7.8 °C 1017.8 hPa NNW 3.2 km/h 6.4 km/h 83 % 0.0 mm
01:52 10.7 °C 7.9 °C 1017.8 hPa NNE 3.2 km/h 6.4 km/h 83 % 0.0 mm
01:57 10.7 °C 7.9 °C 1017.8 hPa Calm   6.4 km/h 83 % 0.0 mm
02:02 10.8 °C 8.0 °C 1017.8 hPa NW 3.2 km/h 6.4 km/h 83 % 0.0 mm
02:07 10.8 °C 8.0 °C 1017.8 hPa North 3.2 km/h 6.4 km/h 83 % 0.0 mm
02:12 10.8 °C 8.0 °C 1017.8 hPa North 1.6 km/h 6.4 km/h 83 % 0.0 mm
02:17 10.9 °C 8.1 °C 1017.8 hPa Calm   6.4 km/h 83 % 0.0 mm
02:22 10.9 °C 8.1 °C 1017.8 hPa North 6.4 km/h 6.4 km/h 83 % 0.0 mm
02:27 10.9 °C 8.1 °C 1017.8 hPa North 3.2 km/h 6.4 km/h 83 % 0.0 mm
02:32 10.9 °C 8.1 °C 1017.8 hPa NW 3.2 km/h 8.0 km/h 83 % 0.0 mm
02:37 10.8 °C 8.0 °C 1017.8 hPa NNE 1.6 km/h 8.0 km/h 83 % 0.0 mm
02:42 10.8 °C 8.0 °C 1017.8 hPa Calm   8.0 km/h 83 % 0.0 mm
02:47 10.7 °C 8.1 °C 1017.8 hPa Calm   4.8 km/h 84 % 0.0 mm
02:52 10.7 °C 8.1 °C 1017.8 hPa Calm   3.2 km/h 84 % 0.0 mm
02:57 10.7 °C 8.1 °C 1017.8 hPa Calm   3.2 km/h 84 % 0.0 mm
03:02 10.6 °C 8.0 °C 1017.8 hPa North 1.6 km/h 3.2 km/h 84 % 0.0 mm
03:07 10.6 °C 8.0 °C 1017.8 hPa NE 1.6 km/h 4.8 km/h 84 % 0.0 mm
03:12 10.6 °C 8.2 °C 1017.8 hPa Calm   4.8 km/h 85 % 0.0 mm
03:17 10.6 °C 8.2 °C 1017.8 hPa NE 1.6 km/h 4.8 km/h 85 % 0.0 mm
03:22 10.7 °C 8.5 °C 1017.8 hPa North 3.2 km/h 4.8 km/h 86 % 0.0 mm
03:27 10.8 °C 8.4 °C 1017.8 hPa NNE 1.6 km/h 6.4 km/h 85 % 0.0 mm
03:32 10.9 °C 8.5 °C 1017.5 hPa NNW 1.6 km/h 8.0 km/h 85 % 0.0 mm
03:37 10.9 °C 8.5 °C 1017.8 hPa NNW 1.6 km/h 9.7 km/h 85 % 0.0 mm
03:42 10.9 °C 8.5 °C 1017.8 hPa NNE 1.6 km/h 9.7 km/h 85 % 0.0 mm
03:47 10.9 °C 8.5 °C 1017.8 hPa NW 1.6 km/h 8.0 km/h 85 % 0.0 mm
03:52 10.9 °C 8.5 °C 1017.8 hPa NNW 3.2 km/h 6.4 km/h 85 % 0.0 mm
04:02 10.9 °C 8.6 °C 1017.8 hPa NNW 1.6 km/h 8.0 km/h 86 % 0.0 mm
04:07 10.9 °C 8.6 °C 1017.8 hPa North 3.2 km/h 8.0 km/h 86 % 0.0 mm
04:12 10.9 °C 8.6 °C 1017.8 hPa NE 3.2 km/h 6.4 km/h 86 % 0.0 mm
04:17 10.9 °C 8.6 °C 1017.8 hPa NW 4.8 km/h 6.4 km/h 86 % 0.0 mm
04:22 10.9 °C 8.6 °C 1017.8 hPa North 1.6 km/h 8.0 km/h 86 % 0.0 mm
04:27 10.9 °C 8.6 °C 1017.8 hPa Calm   8.0 km/h 86 % 0.0 mm
04:32 10.9 °C 8.6 °C 1017.8 hPa Calm   8.0 km/h 86 % 0.0 mm
04:37 10.9 °C 8.6 °C 1017.8 hPa NNE 3.2 km/h 8.0 km/h 86 % 0.0 mm
04:42 10.9 °C 8.6 °C 1017.8 hPa NNE 4.8 km/h 6.4 km/h 86 % 0.0 mm
04:47 10.9 °C 8.6 °C 1017.8 hPa North 3.2 km/h 6.4 km/h 86 % 0.0 mm
04:52 10.9 °C 8.6 °C 1017.8 hPa NNE 4.8 km/h 6.4 km/h 86 % 0.0 mm
04:57 10.9 °C 8.6 °C 1017.8 hPa NNW 3.2 km/h 8.0 km/h 86 % 0.0 mm
05:02 10.9 °C 8.6 °C 1017.8 hPa North 4.8 km/h 8.0 km/h 86 % 0.0 mm
05:07 10.9 °C 8.6 °C 1017.8 hPa NE 3.2 km/h 9.7 km/h 86 % 0.0 mm
05:12 10.9 °C 8.6 °C 1017.8 hPa Calm   9.7 km/h 86 % 0.0 mm
05:17 10.9 °C 8.6 °C 1017.8 hPa NNW 4.8 km/h 8.0 km/h 86 % 0.0 mm
05:22 10.9 °C 8.6 °C 1017.8 hPa North 1.6 km/h 8.0 km/h 86 % 0.0 mm
05:32 10.9 °C 8.6 °C 1017.8 hPa North 1.6 km/h 9.7 km/h 86 % 0.0 mm
05:37 10.8 °C 8.6 °C 1017.8 hPa North 3.2 km/h 9.7 km/h 86 % 0.0 mm
05:42 10.8 °C 8.6 °C 1017.8 hPa NNE 4.8 km/h 9.7 km/h 86 % 0.0 mm
05:47 10.8 °C 8.6 °C 1017.8 hPa Calm   9.7 km/h 86 % 0.0 mm
05:52 10.8 °C 8.6 °C 1017.8 hPa Calm   9.7 km/h 86 % 0.0 mm
05:57 10.8 °C 8.6 °C 1017.8 hPa North 3.2 km/h 8.0 km/h 86 % 0.0 mm
06:02 10.8 °C 8.6 °C 1017.8 hPa NE 4.8 km/h 8.0 km/h 86 % 0.0 mm
06:07 10.9 °C 8.6 °C 1018.2 hPa North 8.0 km/h 8.0 km/h 86 % 0.0 mm
06:12 10.9 °C 8.6 °C 1018.2 hPa NNE 4.8 km/h 8.0 km/h 86 % 0.0 mm
06:17 10.9 °C 8.5 °C 1018.2 hPa NNW 3.2 km/h 8.0 km/h 85 % 0.0 mm
06:22 10.9 °C 8.5 °C 1018.2 hPa NNW 3.2 km/h 8.0 km/h 85 % 0.0 mm
06:32 10.8 °C 8.6 °C 1018.2 hPa North 3.2 km/h 6.4 km/h 86 % 0.0 mm
06:42 10.8 °C 8.6 °C 1018.2 hPa NNW 4.8 km/h 8.0 km/h 86 % 0.0 mm
06:52 10.8 °C 8.6 °C 1018.2 hPa North 3.2 km/h 9.7 km/h 86 % 0.0 mm
06:57 10.7 °C 8.5 °C 1018.5 hPa NNE 3.2 km/h 9.7 km/h 86 % 0.0 mm
07:02 10.7 °C 8.5 °C 1018.5 hPa NNW 4.8 km/h 8.0 km/h 86 % 0.0 mm
07:07 10.7 °C 8.5 °C 1018.5 hPa North 6.4 km/h 9.7 km/h 86 % 0.0 mm
07:12 10.7 °C 8.5 °C 1018.5 hPa NNW 3.2 km/h 9.7 km/h 86 % 0.0 mm
07:17 10.7 °C 8.5 °C 1018.5 hPa NNW 1.6 km/h 8.0 km/h 86 % 0.0 mm
07:22 10.7 °C 8.5 °C 1018.5 hPa NNW 3.2 km/h 8.0 km/h 86 % 0.0 mm
07:27 10.7 °C 8.5 °C 1018.5 hPa North 4.8 km/h 8.0 km/h 86 % 0.0 mm
07:32 10.7 °C 8.5 °C 1018.5 hPa NNE 8.0 km/h 8.0 km/h 86 % 0.0 mm
07:37 10.7 °C 8.5 °C 1018.5 hPa NNW 3.2 km/h 9.7 km/h 86 % 0.0 mm
07:42 10.7 °C 8.5 °C 1018.5 hPa NNW 6.4 km/h 9.7 km/h 86 % 0.0 mm
07:47 10.7 °C 8.5 °C 1018.5 hPa NNW 6.4 km/h 12.9 km/h 86 % 0.0 mm
07:57 10.7 °C 8.5 °C 1018.8 hPa North 4.8 km/h 12.9 km/h 86 % 0.0 mm
08:02 10.7 °C 8.5 °C 1018.8 hPa NNW 3.2 km/h 12.9 km/h 86 % 0.0 mm
08:07 10.7 °C 8.5 °C 1018.8 hPa North 3.2 km/h 11.3 km/h 86 % 0.0 mm
08:12 10.6 °C 8.4 °C 1018.8 hPa North 6.4 km/h 11.3 km/h 86 % 0.0 mm
08:17 10.7 °C 8.5 °C 1018.8 hPa NNE 3.2 km/h 12.9 km/h 86 % 0.0 mm
08:22 10.6 °C 8.4 °C 1018.8 hPa NNE 1.6 km/h 12.9 km/h 86 % 0.0 mm
08:27 10.6 °C 8.4 °C 1018.8 hPa NNW 6.4 km/h 11.3 km/h 86 % 0.0 mm
08:32 10.7 °C 8.5 °C 1018.8 hPa Calm   11.3 km/h 86 % 0.0 mm
08:37 10.7 °C 8.5 °C 1019.2 hPa ENE 3.2 km/h 8.0 km/h 86 % 0.0 mm
08:42 10.7 °C 8.5 °C 1019.2 hPa NNW 4.8 km/h 8.0 km/h 86 % 0.0 mm
08:47 10.7 °C 8.3 °C 1019.2 hPa North 8.0 km/h 9.7 km/h 85 % 0.0 mm
08:57 10.8 °C 8.4 °C 1019.2 hPa North 6.4 km/h 9.7 km/h 85 % 0.0 mm
09:02 10.8 °C 8.4 °C 1019.2 hPa NNE 3.2 km/h 9.7 km/h 85 % 0.0 mm
09:07 10.9 °C 8.5 °C 1019.2 hPa North 1.6 km/h 12.9 km/h 85 % 0.0 mm
09:12 10.9 °C 8.5 °C 1019.5 hPa NNW 6.4 km/h 12.9 km/h 85 % 0.0 mm
09:17 10.9 °C 8.6 °C 1019.5 hPa North 6.4 km/h 12.9 km/h 86 % 0.0 mm
09:22 11.2 °C 8.9 °C 1019.5 hPa WNW 1.6 km/h 12.9 km/h 86 % 0.0 mm
09:27 11.4 °C 8.8 °C 1019.5 hPa North 6.4 km/h 12.9 km/h 84 % 0.0 mm
09:32 11.6 °C 8.8 °C 1019.5 hPa NNE 8.0 km/h 12.9 km/h 83 % 0.0 mm
09:37 11.7 °C 8.7 °C 1019.9 hPa NE 6.4 km/h 12.9 km/h 82 % 0.0 mm
09:42 11.8 °C 8.8 °C 1019.9 hPa NNE 9.7 km/h 12.9 km/h 82 % 0.0 mm
09:47 11.8 °C 8.8 °C 1019.9 hPa NNW 11.3 km/h 17.7 km/h 82 % 0.0 mm
09:52 11.6 °C 8.5 °C 1019.9 hPa North 6.4 km/h 17.7 km/h 81 % 0.0 mm
09:57 11.5 °C 8.4 °C 1019.9 hPa NW 8.0 km/h 17.7 km/h 81 % 0.0 mm
10:02 11.5 °C 8.4 °C 1019.9 hPa NNE 12.9 km/h 17.7 km/h 81 % 0.0 mm
10:07 11.6 °C 8.5 °C 1020.2 hPa NNW 4.8 km/h 16.1 km/h 81 % 0.0 mm
10:12 11.6 °C 8.5 °C 1020.2 hPa NNW 4.8 km/h 16.1 km/h 81 % 0.0 mm
10:17 11.6 °C 8.3 °C 1020.2 hPa WNW 3.2 km/h 19.3 km/h 80 % 0.0 mm
10:22 11.6 °C 8.3 °C 1020.2 hPa NNW 9.7 km/h 19.3 km/h 80 % 0.0 mm
10:27 11.8 °C 8.5 °C 1020.2 hPa NNE 3.2 km/h 19.3 km/h 80 % 0.0 mm
10:32 11.8 °C 8.1 °C 1020.2 hPa NE 8.0 km/h 19.3 km/h 78 % 0.0 mm
10:37 12.1 °C 8.4 °C 1020.2 hPa NNE 4.8 km/h 14.5 km/h 78 % 0.0 mm
10:42 12.3 °C 8.6 °C 1020.2 hPa North 8.0 km/h 14.5 km/h 78 % 0.0 mm
10:47 12.6 °C 8.7 °C 1020.2 hPa NE 8.0 km/h 12.9 km/h 77 % 0.0 mm
10:52 12.7 °C 8.4 °C 1020.2 hPa NNW 6.4 km/h 12.9 km/h 75 % 0.0 mm
10:57 12.9 °C 8.6 °C 1020.2 hPa NNW 6.4 km/h 14.5 km/h 75 % 0.0 mm
11:02 13.2 °C 8.5 °C 1020.2 hPa ENE 4.8 km/h 14.5 km/h 73 % 0.0 mm
11:12 13.6 °C 8.2 °C 1020.2 hPa NE 11.3 km/h 17.7 km/h 70 % 0.0 mm
11:22 13.7 °C 8.1 °C 1020.5 hPa NNE 9.7 km/h 17.7 km/h 69 % 0.0 mm
11:27 13.7 °C 8.3 °C 1020.5 hPa NNE 1.6 km/h 20.9 km/h 70 % 0.0 mm
11:32 13.7 °C 8.1 °C 1020.5 hPa NNE 17.7 km/h 20.9 km/h 69 % 0.0 mm
11:37 13.8 °C 8.4 °C 1020.5 hPa NE 12.9 km/h 20.9 km/h 70 % 0.0 mm
11:42 13.8 °C 8.2 °C 1020.5 hPa ENE 9.7 km/h 20.9 km/h 69 % 0.0 mm
11:47 13.7 °C 8.1 °C 1020.5 hPa NNE 16.1 km/h 22.5 km/h 69 % 0.0 mm
11:52 13.7 °C 8.1 °C 1020.5 hPa NNE 20.9 km/h 22.5 km/h 69 % 0.0 mm
11:57 13.8 °C 8.2 °C 1020.5 hPa NNE 14.5 km/h 29.0 km/h 69 % 0.0 mm
12:02 13.9 °C 8.5 °C 1020.5 hPa North 9.7 km/h 29.0 km/h 70 % 0.0 mm
12:07 14.2 °C 8.6 °C 1020.9 hPa NE 14.5 km/h 29.0 km/h 69 % 0.0 mm
12:12 14.0 °C 8.6 °C 1020.9 hPa NNE 17.7 km/h 19.3 km/h 70 % 0.0 mm
12:17 14.2 °C 8.8 °C 1020.9 hPa NNW 16.1 km/h 19.3 km/h 70 % 0.0 mm
12:22 14.0 °C 8.4 °C 1020.9 hPa NE 11.3 km/h 19.3 km/h 69 % 0.0 mm
12:32 14.4 °C 8.8 °C 1020.9 hPa NNE 12.9 km/h 24.1 km/h 69 % 0.0 mm
12:37 14.6 °C 9.0 °C 1020.9 hPa North 22.5 km/h 22.5 km/h 69 % 0.0 mm
12:42 14.7 °C 8.9 °C 1020.9 hPa NNE 9.7 km/h 22.5 km/h 68 % 0.0 mm
12:52 14.6 °C 8.8 °C 1020.9 hPa NW 8.0 km/h 22.5 km/h 68 % 0.0 mm
12:57 14.8 °C 9.0 °C 1020.9 hPa NNE 9.7 km/h 19.3 km/h 68 % 0.0 mm
13:02 14.6 °C 8.8 °C 1020.9 hPa NNE 17.7 km/h 24.1 km/h 68 % 0.0 mm
13:07 14.6 °C 8.8 °C 1020.9 hPa NNW 6.4 km/h 24.1 km/h 68 % 0.0 mm
13:12 14.8 °C 8.7 °C 1020.9 hPa NNW 6.4 km/h 22.5 km/h 67 % 0.0 mm
13:17 14.9 °C 8.6 °C 1020.5 hPa NNE 12.9 km/h 22.5 km/h 66 % 0.0 mm
13:27 14.8 °C 9.0 °C 1020.9 hPa East 6.4 km/h 17.7 km/h 68 % 0.0 mm
13:32 14.6 °C 8.5 °C 1020.9 hPa NNE 11.3 km/h 27.4 km/h 67 % 0.0 mm
13:37 14.5 °C 8.4 °C 1020.9 hPa NNW 3.2 km/h 27.4 km/h 67 % 0.0 mm
13:42 14.4 °C 8.3 °C 1020.9 hPa NNE 9.7 km/h 27.4 km/h 67 % 0.0 mm
13:47 14.9 °C 8.6 °C 1020.9 hPa NNE 8.0 km/h 19.3 km/h 66 % 0.0 mm
13:52 15.2 °C 8.9 °C 1020.9 hPa North 16.1 km/h 19.3 km/h 66 % 0.0 mm
13:57 15.0 °C 8.7 °C 1020.9 hPa NNE 11.3 km/h 19.3 km/h 66 % 0.0 mm
14:02 15.0 °C 8.9 °C 1020.9 hPa NNW 12.9 km/h 19.3 km/h 67 % 0.0 mm
14:12 14.7 °C 8.6 °C 1020.9 hPa NNW 14.5 km/h 19.3 km/h 67 % 0.0 mm
14:17 14.4 °C 8.6 °C 1020.9 hPa ENE 3.2 km/h 20.9 km/h 68 % 0.0 mm
14:27 14.8 °C 8.5 °C 1020.9 hPa East 9.7 km/h 19.3 km/h 66 % 0.0 mm
14:32 14.9 °C 7.9 °C 1020.9 hPa NNE 4.8 km/h 14.5 km/h 63 % 0.0 mm
14:37 15.1 °C 8.1 °C 1020.9 hPa NNE 17.7 km/h 17.7 km/h 63 % 0.0 mm
14:42 14.9 °C 8.1 °C 1020.9 hPa North 3.2 km/h 19.3 km/h 64 % 0.0 mm
14:47 15.0 °C 8.5 °C 1020.9 hPa NE 16.1 km/h 20.9 km/h 65 % 0.0 mm
14:52 15.1 °C 8.8 °C 1020.9 hPa NNE 12.9 km/h 22.5 km/h 66 % 0.0 mm
14:57 15.2 °C 8.7 °C 1020.9 hPa NNE 11.3 km/h 22.5 km/h 65 % 0.0 mm
15:02 15.3 °C 8.5 °C 1020.9 hPa ENE 9.7 km/h 22.5 km/h 64 % 0.0 mm
15:12 15.7 °C 8.4 °C 1020.9 hPa NNE 8.0 km/h 17.7 km/h 62 % 0.0 mm
15:17 15.4 °C 8.2 °C 1020.9 hPa NNW 9.7 km/h 14.5 km/h 62 % 0.0 mm
15:22 15.3 °C 7.8 °C 1020.9 hPa North 4.8 km/h 14.5 km/h 61 % 0.0 mm
15:27 15.0 °C 8.2 °C 1020.9 hPa NE 14.5 km/h 19.3 km/h 64 % 0.0 mm
15:32 14.8 °C 7.8 °C 1020.9 hPa ENE 3.2 km/h 19.3 km/h 63 % 0.0 mm
15:37 14.8 °C 7.8 °C 1020.9 hPa NE 11.3 km/h 20.9 km/h 63 % 0.0 mm
15:42 14.8 °C 7.8 °C 1020.9 hPa NNE 11.3 km/h 20.9 km/h 63 % 0.0 mm
15:47 15.0 °C 7.3 °C 1020.9 hPa North 6.4 km/h 17.7 km/h 60 % 0.0 mm
15:52 15.0 °C 7.3 °C 1020.9 hPa Calm   17.7 km/h 60 % 0.0 mm
15:57 14.9 °C 7.4 °C 1020.9 hPa NNE 6.4 km/h 12.9 km/h 61 % 0.0 mm
16:02 14.9 °C 7.9 °C 1020.9 hPa NE 6.4 km/h 14.5 km/h 63 % 0.0 mm
16:07 14.8 °C 7.8 °C 1021.2 hPa NE 9.7 km/h 19.3 km/h 63 % 0.0 mm
16:12 14.7 °C 8.2 °C 1021.2 hPa NNW 8.0 km/h 19.3 km/h 65 % 0.0 mm
16:17 14.7 °C 8.0 °C 1021.2 hPa NE 9.7 km/h 17.7 km/h 64 % 0.0 mm
16:22 14.6 °C 8.1 °C 1021.2 hPa NNE 6.4 km/h 17.7 km/h 65 % 0.0 mm
16:27 14.5 °C 8.2 °C 1021.2 hPa ENE 9.7 km/h 17.7 km/h 66 % 0.0 mm
16:32 14.4 °C 8.3 °C 1021.2 hPa NNE 3.2 km/h 20.9 km/h 67 % 0.0 mm
16:37 14.6 °C 8.3 °C 1021.2 hPa NNE 11.3 km/h 20.9 km/h 66 % 0.0 mm
16:42 14.6 °C 8.1 °C 1021.2 hPa NE 4.8 km/h 17.7 km/h 65 % 0.0 mm
16:47 14.7 °C 7.5 °C 1021.2 hPa NE 4.8 km/h 17.7 km/h 62 % 0.0 mm
16:52 14.7 °C 7.3 °C 1021.2 hPa North 11.3 km/h 17.7 km/h 61 % 0.0 mm
16:57 14.6 °C 7.4 °C 1021.2 hPa NNE 6.4 km/h 16.1 km/h 62 % 0.0 mm
17:02 14.8 °C 7.8 °C 1021.2 hPa NE 6.4 km/h 16.1 km/h 63 % 0.0 mm
17:07 14.7 °C 7.5 °C 1021.2 hPa ENE 4.8 km/h 16.1 km/h 62 % 0.0 mm
17:17 14.4 °C 7.7 °C 1021.2 hPa NNE 6.4 km/h 17.7 km/h 64 % 0.0 mm
17:22 14.2 °C 7.7 °C 1021.2 hPa NNE 9.7 km/h 19.3 km/h 65 % 0.0 mm
17:27 14.1 °C 7.8 °C 1021.6 hPa North 11.3 km/h 19.3 km/h 66 % 0.0 mm
17:32 14.0 °C 8.0 °C 1021.6 hPa ENE 9.7 km/h 20.9 km/h 67 % 0.0 mm
17:37 13.9 °C 7.9 °C 1021.6 hPa NE 9.7 km/h 20.9 km/h 67 % 0.0 mm
17:42 13.9 °C 8.1 °C 1021.6 hPa NNE 8.0 km/h 20.9 km/h 68 % 0.0 mm
17:47 13.8 °C 7.8 °C 1021.6 hPa NE 3.2 km/h 16.1 km/h 67 % 0.0 mm
17:52 13.8 °C 7.8 °C 1021.6 hPa NNE 8.0 km/h 16.1 km/h 67 % 0.0 mm
17:57 13.8 °C 7.8 °C 1021.6 hPa NNE 6.4 km/h 16.1 km/h 67 % 0.0 mm
18:02 13.8 °C 8.0 °C 1021.6 hPa ENE 3.2 km/h 16.1 km/h 68 % 0.0 mm
18:12 13.7 °C 7.5 °C 1021.6 hPa NW 4.8 km/h 14.5 km/h 66 % 0.0 mm
18:17 13.7 °C 7.7 °C 1021.6 hPa NW 6.4 km/h 14.5 km/h 67 % 0.0 mm
18:22 13.7 °C 7.7 °C 1021.6 hPa NE 3.2 km/h 14.5 km/h 67 % 0.0 mm
18:27 13.7 °C 7.5 °C 1021.6 hPa NNE 8.0 km/h 14.5 km/h 66 % 0.0 mm
18:32 13.6 °C 7.4 °C 1021.6 hPa NE 6.4 km/h 14.5 km/h 66 % 0.0 mm
18:37 13.6 °C 7.6 °C 1021.6 hPa NNE 6.4 km/h 16.1 km/h 67 % 0.0 mm
18:42 13.5 °C 7.5 °C 1021.9 hPa NE 6.4 km/h 16.1 km/h 67 % 0.0 mm
18:47 13.5 °C 7.7 °C 1021.9 hPa NNE 4.8 km/h 16.1 km/h 68 % 0.0 mm
18:52 13.4 °C 7.6 °C 1021.9 hPa NNE 3.2 km/h 14.5 km/h 68 % 0.0 mm
18:57 13.4 °C 7.6 °C 1021.9 hPa NNE 1.6 km/h 11.3 km/h 68 % 0.0 mm
19:02 13.3 °C 7.7 °C 1021.9 hPa East 1.6 km/h 11.3 km/h 69 % 0.0 mm
19:12 13.2 °C 7.6 °C 1021.9 hPa Calm   8.0 km/h 69 % 0.0 mm
19:17 13.2 °C 7.6 °C 1021.9 hPa Calm   6.4 km/h 69 % 0.0 mm
19:22 13.1 °C 7.8 °C 1021.9 hPa NE 4.8 km/h 8.0 km/h 70 % 0.0 mm
19:27 13.0 °C 7.7 °C 1022.2 hPa NNW 1.6 km/h 9.7 km/h 70 % 0.0 mm
19:32 12.9 °C 7.8 °C 1022.2 hPa ENE 3.2 km/h 9.7 km/h 71 % 0.0 mm
19:42 12.9 °C 7.8 °C 1022.2 hPa NNE 3.2 km/h 9.7 km/h 71 % 0.0 mm
19:47 12.8 °C 7.7 °C 1022.2 hPa Calm   9.7 km/h 71 % 0.0 mm
19:52 12.8 °C 7.9 °C 1022.2 hPa NNE 3.2 km/h 9.7 km/h 72 % 0.0 mm
19:57 12.7 °C 7.8 °C 1022.2 hPa NE 3.2 km/h 9.7 km/h 72 % 0.0 mm
20:02 12.7 °C 7.8 °C 1022.2 hPa NNW 3.2 km/h 9.7 km/h 72 % 0.0 mm
20:07 12.6 °C 7.7 °C 1022.2 hPa North 4.8 km/h 9.7 km/h 72 % 0.0 mm
20:12 12.6 °C 7.7 °C 1022.2 hPa NE 1.6 km/h 9.7 km/h 72 % 0.0 mm
20:17 12.6 °C 7.9 °C 1022.2 hPa NE 3.2 km/h 9.7 km/h 73 % 0.0 mm
20:22 12.5 °C 7.8 °C 1022.2 hPa NNW 1.6 km/h 6.4 km/h 73 % 0.0 mm
20:27 12.4 °C 7.7 °C 1022.2 hPa NW 3.2 km/h 4.8 km/h 73 % 0.0 mm
20:32 12.4 °C 7.7 °C 1022.2 hPa Calm   8.0 km/h 73 % 0.0 mm
20:37 12.4 °C 7.9 °C 1022.2 hPa Calm   8.0 km/h 74 % 0.0 mm
20:42 12.3 °C 7.8 °C 1022.2 hPa NNW 1.6 km/h 6.4 km/h 74 % 0.0 mm
20:47 12.2 °C 7.7 °C 1022.2 hPa North 1.6 km/h 3.2 km/h 74 % 0.0 mm
20:57 12.1 °C 7.8 °C 1022.2 hPa Calm   6.4 km/h 75 % 0.0 mm
21:02 12.1 °C 7.8 °C 1022.2 hPa Calm   3.2 km/h 75 % 0.0 mm
21:12 12.0 °C 7.7 °C 1022.2 hPa Calm   3.2 km/h 75 % 0.0 mm
21:17 11.9 °C 7.6 °C 1022.2 hPa NW 1.6 km/h 3.2 km/h 75 % 0.0 mm
21:27 11.8 °C 7.7 °C 1022.2 hPa Calm   4.8 km/h 76 % 0.0 mm
21:32 11.7 °C 7.6 °C 1022.2 hPa Calm   4.8 km/h 76 % 0.0 mm
21:42 11.6 °C 7.5 °C 1022.6 hPa Calm   3.2 km/h 76 % 0.0 mm
21:47 11.6 °C 7.5 °C 1022.6 hPa Calm   3.2 km/h 76 % 0.0 mm
21:52 11.5 °C 7.6 °C 1022.6 hPa WNW 1.6 km/h 1.6 km/h 77 % 0.0 mm
21:57 11.4 °C 7.7 °C 1022.6 hPa NW 1.6 km/h 3.2 km/h 78 % 0.0 mm
22:02 11.2 °C 7.5 °C 1022.6 hPa NW 1.6 km/h 4.8 km/h 78 % 0.0 mm
22:12 11.2 °C 7.7 °C 1022.6 hPa WNW 1.6 km/h 4.8 km/h 79 % 0.0 mm
22:17 11.1 °C 7.6 °C 1022.6 hPa West 1.6 km/h 3.2 km/h 79 % 0.0 mm
22:22 10.9 °C 7.4 °C 1022.9 hPa Calm   3.2 km/h 79 % 0.0 mm
22:27 10.8 °C 7.5 °C 1022.9 hPa Calm   3.2 km/h 80 % 0.0 mm
22:32 10.7 °C 7.4 °C 1022.6 hPa Calm   1.6 km/h 80 % 0.0 mm
22:42 10.5 °C 7.4 °C 1022.6 hPa WNW 3.2 km/h 3.2 km/h 81 % 0.0 mm
22:47 10.4 °C 7.3 °C 1022.6 hPa WNW 1.6 km/h 3.2 km/h 81 % 0.0 mm
22:52 10.3 °C 7.4 °C 1022.6 hPa WNW 1.6 km/h 3.2 km/h 82 % 0.0 mm
22:57 10.2 °C 7.3 °C 1022.6 hPa WNW 1.6 km/h 3.2 km/h 82 % 0.0 mm
23:02 10.0 °C 7.1 °C 1022.6 hPa WNW 1.6 km/h 1.6 km/h 82 % 0.0 mm
23:12 9.8 °C 7.1 °C 1022.6 hPa WNW 1.6 km/h 1.6 km/h 83 % 0.0 mm
23:17 9.9 °C 7.1 °C 1022.9 hPa NW 1.6 km/h 3.2 km/h 83 % 0.0 mm
23:22 9.9 °C 7.1 °C 1022.6 hPa NW 3.2 km/h 3.2 km/h 83 % 0.0 mm
23:27 9.9 °C 7.1 °C 1022.6 hPa NW 3.2 km/h 4.8 km/h 83 % 0.0 mm
23:32 9.9 °C 7.1 °C 1022.6 hPa NW 4.8 km/h 4.8 km/h 83 % 0.0 mm
23:37 9.9 °C 7.1 °C 1022.6 hPa NW 1.6 km/h 4.8 km/h 83 % 0.0 mm
23:42 9.9 °C 7.1 °C 1022.6 hPa NW 3.2 km/h 4.8 km/h 83 % 0.0 mm
23:47 9.9 °C 7.1 °C 1022.6 hPa Calm   6.4 km/h 83 % 0.0 mm
23:52 9.9 °C 7.1 °C 1022.6 hPa Calm   6.4 km/h 83 % 0.0 mm
23:57 9.9 °C 7.1 °C 1022.6 hPa WNW 1.6 km/h 4.8 km/h 83 % 0.0 mm
Meteo18
Compliments of Weather Underground - 4 mb

Script developed by  Jim McMurry - jmcmurry@mwt.net Adapted for the template by  Wim van der Kuil - Leuven-Template.eu

You find our weather info also at:

European Weather Network

Weather Underground

Equipment we use:

Weather-station
Davis Vue

Weather-program
Meteohub

Weather-server
Raspberry PI 2 B+

Provider
1 and 1

Davis Vue

Meteohub

Raspberry PI 2 B+

1 and 1